createdAt,value
2022-11-29T00:01:37.378Z,9.57
2022-11-29T00:04:07.215Z,10.98
2022-11-29T00:06:35.974Z,11.60
2022-11-29T00:09:07.566Z,11.32
2022-11-29T00:11:55.313Z,11.68
2022-11-29T00:14:24.043Z,10.43
2022-11-29T00:16:53.871Z,11.43
2022-11-29T00:19:23.480Z,10.20
2022-11-29T00:21:51.456Z,11.10
2022-11-29T00:24:19.790Z,10.80
2022-11-29T00:26:47.838Z,10.38
2022-11-29T00:29:15.891Z,11.18
2022-11-29T00:31:44.857Z,11.05
2022-11-29T00:34:13.695Z,9.57
2022-11-29T00:36:42.991Z,10.80
2022-11-29T00:39:12.744Z,11.20
2022-11-29T00:41:40.976Z,10.45
2022-11-29T00:44:08.981Z,11.23
2022-11-29T00:46:37.321Z,10.80
2022-11-29T00:49:05.796Z,10.73
2022-11-29T00:51:33.769Z,10.45
2022-11-29T00:54:03.156Z,11.10
2022-11-29T00:56:31.182Z,10.82
2022-11-29T00:58:59.126Z,11.68
2022-11-29T01:01:27.271Z,11.52
2022-11-29T01:03:55.216Z,11.55
2022-11-29T01:06:23.130Z,10.77
2022-11-29T01:08:51.032Z,10.75
2022-11-29T01:11:22.728Z,11.02
2022-11-29T01:13:52.348Z,11.68
2022-11-29T01:16:20.462Z,10.10
2022-11-29T01:18:48.563Z,11.35
2022-11-29T01:21:18.713Z,10.82
2022-11-29T01:23:48.434Z,11.02
2022-11-29T01:26:18.497Z,10.57
2022-11-29T01:28:50.235Z,10.45
2022-11-29T01:31:20.558Z,11.20
2022-11-29T01:33:49.873Z,10.73
2022-11-29T01:36:17.783Z,10.75
2022-11-29T01:38:45.929Z,11.13
2022-11-29T01:41:16.428Z,10.77
2022-11-29T01:44:01.869Z,10.55
2022-11-29T01:46:30.777Z,11.75
2022-11-29T01:49:03.151Z,12.48
2022-11-29T01:51:31.957Z,11.30
2022-11-29T01:54:00.383Z,11.20
2022-11-29T01:56:31.154Z,12.00
2022-11-29T01:59:02.287Z,11.15
2022-11-29T02:01:30.308Z,11.68
2022-11-29T02:03:59.040Z,11.80
2022-11-29T02:06:28.191Z,10.80
2022-11-29T02:08:56.399Z,10.60
2022-11-29T02:12:00.410Z,11.25
2022-11-29T02:14:52.189Z,10.93
2022-11-29T02:17:31.264Z,11.07
2022-11-29T02:20:33.117Z,10.65
2022-11-29T02:23:11.889Z,10.93
2022-11-29T02:25:57.109Z,11.65
2022-11-29T02:28:46.198Z,10.98
2022-11-29T02:31:44.246Z,10.23
2022-11-29T02:34:41.395Z,10.65
2022-11-29T02:37:32.693Z,11.27
2022-11-29T02:40:31.537Z,10.48
2022-11-29T02:43:38.357Z,10.95
2022-11-29T02:46:23.041Z,10.15
2022-11-29T02:48:59.173Z,11.90
2022-11-29T02:51:37.353Z,11.00
2022-11-29T02:54:11.040Z,11.15
2022-11-29T02:56:44.056Z,11.60
2022-11-29T02:59:21.593Z,11.35
2022-11-29T03:01:56.874Z,12.25
2022-11-29T03:07:06.902Z,11.43
2022-11-29T03:09:41.019Z,10.88
2022-11-29T03:12:19.789Z,11.15
2022-11-29T03:14:57.897Z,11.90
2022-11-29T03:17:35.229Z,10.50
2022-11-29T03:20:21.654Z,11.23
2022-11-29T03:23:05.232Z,12.00
2022-11-29T03:25:37.700Z,11.90
2022-11-29T03:28:14.233Z,11.63
2022-11-29T03:30:47.424Z,11.90
2022-11-29T03:33:22.609Z,12.10
2022-11-29T03:35:57.873Z,11.90
2022-11-29T03:41:05.654Z,11.68
2022-11-29T03:43:42.006Z,11.88
2022-11-29T03:46:13.673Z,12.07
2022-11-29T03:48:47.972Z,12.23
2022-11-29T03:51:21.058Z,12.40
2022-11-29T03:53:56.415Z,12.18
2022-11-29T03:59:05.049Z,11.27
2022-11-29T04:02:15.652Z,11.48
2022-11-29T04:05:22.416Z,12.43
2022-11-29T04:08:18.171Z,11.20
2022-11-29T04:11:07.066Z,12.85
2022-11-29T04:14:06.739Z,12.15
2022-11-29T04:17:05.881Z,11.52
2022-11-29T04:20:06.405Z,11.90
2022-11-29T04:22:51.276Z,12.07
2022-11-29T04:25:54.870Z,11.63
2022-11-29T04:29:02.989Z,10.63
2022-11-29T04:31:40.263Z,11.00
2022-11-29T04:34:29.518Z,11.07
2022-11-29T04:37:38.327Z,11.57
2022-11-29T04:40:42.320Z,11.63
2022-11-29T04:43:51.814Z,11.57
2022-11-29T04:46:45.447Z,12.35
2022-11-29T04:49:32.997Z,10.80
2022-11-29T04:52:16.793Z,11.57
2022-11-29T04:54:51.272Z,11.00
2022-11-29T04:57:28.357Z,11.30
2022-11-29T05:00:07.660Z,11.63
2022-11-29T05:02:42.101Z,11.50
2022-11-29T05:05:21.103Z,11.87
2022-11-29T05:07:59.336Z,11.20
2022-11-29T05:10:33.112Z,12.25
2022-11-29T05:13:10.570Z,12.40
2022-11-29T05:16:07.958Z,12.70
2022-11-29T05:18:58.659Z,11.45
2022-11-29T05:21:37.385Z,11.43
2022-11-29T05:24:18.111Z,12.32
2022-11-29T05:26:51.904Z,12.07
2022-11-29T05:29:27.154Z,12.18
2022-11-29T05:35:06.552Z,11.52
2022-11-29T05:37:45.201Z,11.82
2022-11-29T05:40:38.785Z,11.95
2022-11-29T05:43:18.465Z,13.15
2022-11-29T05:45:53.505Z,12.23
2022-11-29T05:48:30.928Z,12.52
2022-11-29T05:51:12.126Z,12.55
2022-11-29T05:53:46.075Z,11.88
2022-11-29T05:56:19.878Z,11.15
2022-11-29T05:58:52.673Z,11.40
2022-11-29T06:01:24.997Z,13.15
2022-11-29T06:04:01.103Z,12.50
2022-11-29T06:06:39.595Z,13.88
2022-11-29T06:09:16.569Z,13.05
2022-11-29T06:11:49.272Z,14.68
2022-11-29T06:14:40.177Z,19.05
2022-11-29T06:17:35.749Z,18.55
2022-11-29T06:20:36.736Z,13.52
2022-11-29T06:23:24.082Z,12.93
2022-11-29T06:26:04.022Z,14.00
2022-11-29T06:28:51.149Z,13.18
2022-11-29T06:31:24.746Z,12.23
2022-11-29T06:34:02.500Z,13.77
2022-11-29T06:36:37.064Z,14.40
2022-11-29T06:39:05.910Z,13.15
2022-11-29T06:41:34.522Z,13.20
2022-11-29T06:44:03.201Z,13.90
2022-11-29T06:46:45.414Z,13.48
2022-11-29T06:49:21.115Z,13.63
2022-11-29T06:51:59.584Z,14.95
2022-11-29T06:54:39.701Z,12.93
2022-11-29T06:57:17.271Z,14.23
2022-11-29T06:59:58.546Z,14.68
2022-11-29T07:02:45.260Z,13.68
2022-11-29T07:05:21.084Z,13.45
2022-11-29T07:07:51.380Z,14.45
2022-11-29T07:10:20.809Z,13.73
2022-11-29T07:12:50.462Z,13.82
2022-11-29T07:15:21.082Z,13.63
2022-11-29T07:18:02.680Z,13.82
2022-11-29T07:20:38.039Z,13.75
2022-11-29T07:23:17.796Z,13.60
2022-11-29T07:25:59.282Z,12.70
2022-11-29T07:28:43.682Z,13.05
2022-11-29T07:31:21.467Z,14.05
2022-11-29T07:33:59.893Z,14.95
2022-11-29T07:36:37.595Z,13.35
2022-11-29T07:39:19.190Z,14.27
2022-11-29T07:41:54.346Z,12.27
2022-11-29T07:44:29.051Z,13.40
2022-11-29T07:46:57.085Z,12.98
2022-11-29T07:49:25.076Z,13.98
2022-11-29T07:51:54.800Z,14.02
2022-11-29T07:54:24.433Z,13.10
2022-11-29T07:56:52.336Z,13.75
2022-11-29T07:59:20.601Z,15.25
2022-11-29T08:01:48.548Z,14.60
2022-11-29T08:04:16.640Z,13.75
2022-11-29T08:06:44.652Z,15.07
2022-11-29T08:09:12.560Z,13.57
2022-11-29T08:11:41.941Z,14.13
2022-11-29T08:14:10.091Z,15.00
2022-11-29T08:16:38.475Z,14.82
2022-11-29T08:19:06.927Z,15.20
2022-11-29T08:21:34.925Z,15.25
2022-11-29T08:24:02.956Z,14.90
2022-11-29T08:26:31.818Z,14.93
2022-11-29T08:29:01.542Z,13.90
2022-11-29T08:31:29.877Z,15.30
2022-11-29T08:33:58.044Z,13.80
2022-11-29T08:36:26.126Z,14.07
2022-11-29T08:39:02.241Z,13.93
2022-11-29T08:41:34.135Z,14.50
2022-11-29T08:44:03.598Z,14.10
2022-11-29T08:46:45.431Z,15.02
2022-11-29T08:49:13.408Z,14.95
2022-11-29T08:51:41.393Z,15.05
2022-11-29T08:54:10.765Z,13.82
2022-11-29T08:59:28.291Z,13.75
2022-11-29T09:01:56.309Z,14.60
2022-11-29T09:04:24.436Z,14.27
2022-11-29T09:06:52.477Z,14.93
2022-11-29T09:09:20.448Z,12.77
2022-11-29T09:11:49.739Z,14.57
2022-11-29T09:14:18.309Z,12.88
2022-11-29T09:16:47.729Z,19.65
2022-11-29T09:19:16.219Z,16.63
2022-11-29T09:21:44.212Z,18.35
2022-11-29T09:24:12.282Z,15.80
2022-11-29T09:26:42.225Z,15.48
2022-11-29T09:29:11.415Z,14.88
2022-11-29T09:31:39.515Z,15.20
2022-11-29T09:34:08.944Z,14.80
2022-11-29T09:36:37.245Z,14.85
2022-11-29T09:39:05.277Z,14.82
2022-11-29T09:41:48.771Z,15.55
2022-11-29T09:44:22.262Z,15.70
2022-11-29T09:46:58.917Z,15.02
2022-11-29T09:49:55.764Z,17.40
2022-11-29T09:52:35.078Z,15.85
2022-11-29T09:55:12.481Z,15.75
2022-11-29T09:57:43.913Z,15.85
2022-11-29T10:00:19.827Z,14.93
2022-11-29T10:02:53.549Z,15.05
2022-11-29T10:05:26.498Z,14.60
2022-11-29T10:08:00.888Z,15.82
2022-11-29T10:10:32.230Z,16.50
2022-11-29T10:13:08.172Z,14.50
2022-11-29T10:15:42.304Z,15.02
2022-11-29T10:18:17.169Z,15.02
2022-11-29T10:20:50.559Z,14.65
2022-11-29T10:23:24.634Z,14.15
2022-11-29T10:25:54.332Z,14.27
2022-11-29T10:28:23.314Z,14.38
2022-11-29T10:30:54.191Z,14.82
2022-11-29T10:33:26.301Z,14.25
2022-11-29T10:35:58.397Z,14.68
2022-11-29T10:38:31.211Z,15.43
2022-11-29T10:41:05.680Z,14.40
2022-11-29T10:43:33.996Z,15.15
2022-11-29T10:46:02.589Z,14.50
2022-11-29T10:48:34.006Z,14.93
2022-11-29T10:51:03.693Z,15.68
2022-11-29T10:53:36.657Z,15.85
2022-11-29T10:56:09.344Z,15.13
2022-11-29T10:58:37.531Z,16.30
2022-11-29T11:01:07.653Z,16.35
2022-11-29T11:03:38.764Z,13.73
2022-11-29T11:06:14.638Z,16.15
2022-11-29T11:08:44.629Z,17.38
2022-11-29T11:11:14.137Z,17.98
2022-11-29T11:13:42.726Z,16.63
2022-11-29T11:16:18.762Z,17.10
2022-11-29T11:18:48.560Z,14.70
2022-11-29T11:21:22.699Z,14.20
2022-11-29T11:23:57.049Z,14.15
2022-11-29T11:26:25.932Z,13.97
2022-11-29T11:28:59.009Z,14.07
2022-11-29T11:31:34.124Z,14.82
2022-11-29T11:34:27.729Z,14.90
2022-11-29T11:37:20.434Z,13.63
2022-11-29T11:39:51.003Z,14.00
2022-11-29T11:42:42.632Z,14.23
2022-11-29T11:45:35.012Z,15.27
2022-11-29T11:48:05.852Z,16.27
2022-11-29T11:50:37.822Z,14.82
2022-11-29T11:53:18.582Z,14.15
2022-11-29T11:55:54.740Z,16.48
2022-11-29T11:58:24.537Z,16.23
2022-11-29T12:01:04.309Z,14.25
2022-11-29T12:03:43.002Z,13.45
2022-11-29T12:06:28.300Z,13.05
2022-11-29T12:09:04.645Z,13.88
2022-11-29T12:11:40.185Z,13.60
2022-11-29T12:14:08.962Z,15.30
2022-11-29T12:16:40.215Z,14.00
2022-11-29T12:19:16.469Z,12.25
2022-11-29T12:21:48.418Z,13.30
2022-11-29T12:24:25.812Z,13.35
2022-11-29T12:26:58.546Z,13.48
2022-11-29T12:29:32.036Z,14.23
2022-11-29T12:32:21.419Z,14.15
2022-11-29T12:35:02.971Z,13.45
2022-11-29T12:37:36.885Z,12.52
2022-11-29T12:40:26.243Z,12.93
2022-11-29T12:43:04.015Z,13.52
2022-11-29T12:45:42.828Z,14.57
2022-11-29T12:48:23.131Z,13.30
2022-11-29T12:50:59.472Z,13.32
2022-11-29T12:53:41.890Z,13.35
2022-11-29T12:56:16.681Z,14.20
2022-11-29T12:58:57.552Z,13.82
2022-11-29T13:01:32.624Z,13.65
2022-11-29T13:04:12.406Z,14.23
2022-11-29T13:06:48.286Z,12.50
2022-11-29T13:09:32.945Z,13.85
2022-11-29T13:12:07.537Z,14.43
2022-11-29T13:14:43.635Z,14.18
2022-11-29T13:17:26.907Z,13.90
2022-11-29T13:19:57.354Z,14.02
2022-11-29T13:22:39.184Z,13.70
2022-11-29T13:25:16.629Z,13.10
2022-11-29T13:27:54.806Z,16.13
2022-11-29T13:30:23.005Z,13.00
2022-11-29T13:32:58.868Z,14.32
2022-11-29T13:35:36.470Z,14.43
2022-11-29T13:38:11.457Z,15.13
2022-11-29T13:40:47.392Z,16.27
2022-11-29T13:43:22.853Z,13.88
2022-11-29T13:45:58.561Z,14.40
2022-11-29T13:48:47.872Z,12.98
2022-11-29T13:51:31.556Z,12.95
2022-11-29T13:54:02.368Z,14.90
2022-11-29T13:56:43.007Z,14.38
2022-11-29T13:59:19.527Z,15.25
2022-11-29T14:01:50.305Z,14.75
2022-11-29T14:04:29.219Z,14.52
2022-11-29T14:07:08.086Z,14.73
2022-11-29T14:09:44.454Z,16.15
2022-11-29T14:12:36.738Z,15.20
2022-11-29T14:15:19.081Z,14.80
2022-11-29T14:17:53.902Z,16.02
2022-11-29T14:20:55.819Z,15.63
2022-11-29T14:23:35.868Z,14.00
2022-11-29T14:26:28.734Z,15.80
2022-11-29T14:28:57.873Z,16.98
2022-11-29T14:31:55.897Z,16.63
2022-11-29T14:34:50.485Z,17.15
2022-11-29T14:37:48.342Z,16.45
2022-11-29T14:40:30.022Z,16.05
2022-11-29T14:42:59.016Z,18.30
2022-11-29T14:45:30.009Z,16.98
2022-11-29T14:47:59.704Z,17.02
2022-11-29T14:50:36.613Z,17.27
2022-11-29T14:53:06.475Z,17.88
2022-11-29T14:55:37.340Z,16.33
2022-11-29T14:58:16.761Z,15.75
2022-11-29T15:01:11.042Z,13.85
2022-11-29T15:03:50.509Z,16.23
2022-11-29T15:06:26.204Z,16.27
2022-11-29T15:09:01.702Z,19.40
2022-11-29T15:11:49.463Z,24.92
2022-11-29T15:14:23.435Z,26.08
2022-11-29T15:17:05.466Z,24.23
2022-11-29T15:19:59.943Z,20.73
2022-11-29T15:22:30.564Z,15.68
2022-11-29T15:25:02.162Z,18.27
2022-11-29T15:27:30.159Z,15.70
2022-11-29T15:29:59.900Z,16.83
2022-11-29T15:32:33.569Z,17.20
2022-11-29T15:35:03.020Z,16.10
2022-11-29T15:37:44.512Z,15.57
2022-11-29T15:40:15.673Z,17.58
2022-11-29T15:42:45.926Z,27.00
2022-11-29T15:45:29.263Z,18.45
2022-11-29T15:48:12.510Z,17.15
2022-11-29T15:50:46.707Z,17.73
2022-11-29T15:53:19.798Z,16.88
2022-11-29T15:55:50.439Z,17.55
2022-11-29T15:58:19.645Z,17.65
2022-11-29T16:00:50.653Z,17.95
2022-11-29T16:03:25.281Z,19.83
2022-11-29T16:06:01.898Z,17.20
2022-11-29T16:08:34.175Z,17.42
2022-11-29T16:11:02.477Z,17.52
2022-11-29T16:13:39.529Z,16.08
2022-11-29T16:16:15.425Z,17.23
2022-11-29T16:18:45.286Z,18.20
2022-11-29T16:21:27.169Z,15.52
2022-11-29T16:23:55.835Z,17.50
2022-11-29T16:26:28.285Z,20.00
2022-11-29T16:28:57.937Z,20.42
2022-11-29T16:31:32.923Z,17.88
2022-11-29T16:34:08.217Z,16.67
2022-11-29T16:39:08.362Z,15.82
2022-11-29T16:41:38.326Z,15.60
2022-11-29T16:44:08.247Z,16.17
2022-11-29T16:46:38.746Z,15.70
2022-11-29T16:49:31.717Z,15.43
2022-11-29T16:52:01.720Z,16.73
2022-11-29T16:54:33.848Z,17.45
2022-11-29T16:57:06.096Z,16.35
2022-11-29T16:59:35.293Z,17.15
2022-11-29T17:02:03.843Z,14.45
2022-11-29T17:04:31.862Z,15.20
2022-11-29T17:07:01.391Z,15.13
2022-11-29T17:09:33.039Z,13.88
2022-11-29T17:12:02.487Z,15.73
2022-11-29T17:14:31.569Z,16.40
2022-11-29T17:17:02.582Z,15.77
2022-11-29T17:19:31.589Z,14.65
2022-11-29T17:22:01.248Z,15.23
2022-11-29T17:24:29.236Z,15.32
2022-11-29T17:26:57.195Z,16.75
2022-11-29T17:29:26.485Z,17.67
2022-11-29T17:31:54.522Z,17.60
2022-11-29T17:34:22.606Z,19.33
2022-11-29T17:36:50.879Z,17.73
2022-11-29T17:39:21.607Z,19.70
2022-11-29T17:41:49.719Z,20.67
2022-11-29T17:44:17.695Z,18.95
2022-11-29T17:46:45.636Z,18.95
2022-11-29T17:49:13.541Z,16.55
2022-11-29T17:51:56.988Z,17.98
2022-11-29T17:54:26.512Z,18.92
2022-11-29T17:56:54.496Z,18.95
2022-11-29T17:59:22.562Z,18.75
2022-11-29T18:01:50.765Z,18.75
2022-11-29T18:04:19.523Z,16.23
2022-11-29T18:06:50.049Z,18.65
2022-11-29T18:09:19.709Z,16.80
2022-11-29T18:11:50.436Z,15.65
2022-11-29T18:14:20.766Z,17.70
2022-11-29T18:16:48.935Z,16.58
2022-11-29T18:19:18.919Z,15.90
2022-11-29T18:21:47.212Z,16.80
2022-11-29T18:24:15.664Z,14.85
2022-11-29T18:26:43.663Z,15.18
2022-11-29T18:29:13.204Z,17.23
2022-11-29T18:31:43.615Z,17.27
2022-11-29T18:34:13.063Z,16.25
2022-11-29T18:36:43.759Z,17.20
2022-11-29T18:39:14.858Z,17.27
2022-11-29T18:41:44.518Z,19.75
2022-11-29T18:44:15.758Z,18.40
2022-11-29T18:46:44.783Z,16.55
2022-11-29T18:49:14.389Z,17.92
2022-11-29T18:51:45.166Z,18.10
2022-11-29T18:54:14.134Z,17.55
2022-11-29T18:56:42.323Z,22.85
2022-11-29T18:59:14.754Z,25.08
2022-11-29T19:01:43.369Z,22.58
2022-11-29T19:04:13.758Z,23.08
2022-11-29T19:06:42.192Z,21.48
2022-11-29T19:09:13.944Z,21.33
2022-11-29T19:11:41.950Z,20.98
2022-11-29T19:14:12.446Z,22.25
2022-11-29T19:16:43.981Z,21.73
2022-11-29T19:19:12.638Z,21.45
2022-11-29T19:21:41.101Z,22.13
2022-11-29T19:24:14.875Z,20.67
2022-11-29T19:26:44.665Z,22.50
2022-11-29T19:29:13.935Z,23.52
2022-11-29T19:31:43.609Z,22.40
2022-11-29T19:34:11.802Z,22.20
2022-11-29T19:36:43.081Z,23.35
2022-11-29T19:39:25.697Z,22.55
2022-11-29T19:41:54.299Z,23.00
2022-11-29T19:44:29.134Z,24.13
2022-11-29T19:47:00.079Z,25.38
2022-11-29T19:49:29.071Z,25.50
2022-11-29T19:51:57.610Z,22.70
2022-11-29T19:54:29.209Z,20.35
2022-11-29T19:56:58.756Z,18.80
2022-11-29T19:59:29.776Z,19.13
2022-11-29T20:01:59.480Z,18.90
2022-11-29T20:04:27.929Z,18.33
2022-11-29T20:06:57.073Z,19.63
2022-11-29T20:09:28.884Z,18.85
2022-11-29T20:11:58.105Z,21.83
2022-11-29T20:14:31.245Z,22.17
2022-11-29T20:17:03.023Z,20.58
2022-11-29T20:19:31.644Z,20.63
2022-11-29T20:22:00.350Z,21.30
2022-11-29T20:24:31.261Z,21.10
2022-11-29T20:27:05.193Z,21.17
2022-11-29T20:29:33.600Z,19.90
2022-11-29T20:32:03.533Z,21.58
2022-11-29T20:34:32.593Z,20.63
2022-11-29T20:37:32.925Z,19.98
2022-11-29T20:40:03.726Z,20.85
2022-11-29T20:42:59.589Z,20.17
2022-11-29T20:45:28.792Z,20.27
2022-11-29T20:48:03.858Z,19.70
2022-11-29T20:50:33.418Z,18.42
2022-11-29T20:53:27.811Z,17.25
2022-11-29T20:55:56.073Z,14.52
2022-11-29T20:58:26.397Z,15.50
2022-11-29T21:00:56.772Z,17.83
2022-11-29T21:03:27.955Z,17.13
2022-11-29T21:05:57.775Z,19.00
2022-11-29T21:08:27.473Z,19.13
2022-11-29T21:10:55.587Z,19.98
2022-11-29T21:13:24.309Z,18.08
2022-11-29T21:15:53.199Z,19.05
2022-11-29T21:18:24.542Z,18.02
2022-11-29T21:21:06.851Z,16.58
2022-11-29T21:23:46.173Z,16.67
2022-11-29T21:26:17.735Z,16.35
2022-11-29T21:28:56.182Z,16.25
2022-11-29T21:31:24.710Z,14.35
2022-11-29T21:33:53.324Z,16.23
2022-11-29T21:36:22.915Z,14.82
2022-11-29T21:38:55.052Z,15.40
2022-11-29T21:41:23.394Z,18.70
2022-11-29T21:44:06.111Z,19.60
2022-11-29T21:46:35.357Z,20.60
2022-11-29T21:49:03.432Z,20.25
2022-11-29T21:51:33.014Z,20.70
2022-11-29T21:54:01.956Z,20.15
2022-11-29T21:56:29.897Z,17.02
2022-11-29T21:58:57.842Z,17.35
2022-11-29T22:01:27.196Z,18.40
2022-11-29T22:03:55.455Z,19.67
2022-11-29T22:06:26.018Z,19.17
2022-11-29T22:08:55.271Z,18.60
2022-11-29T22:11:31.788Z,18.55
2022-11-29T22:14:16.894Z,17.83
2022-11-29T22:16:47.877Z,16.83
2022-11-29T22:19:18.204Z,17.73
2022-11-29T22:21:47.881Z,16.63
2022-11-29T22:24:18.738Z,17.05
2022-11-29T22:26:47.132Z,17.85
2022-11-29T22:29:15.881Z,18.17
2022-11-29T22:31:44.933Z,19.30
2022-11-29T22:34:13.053Z,17.92
2022-11-29T22:36:41.495Z,16.98
2022-11-29T22:39:10.218Z,17.83
2022-11-29T22:41:40.255Z,18.17
2022-11-29T22:44:08.634Z,18.30
2022-11-29T22:46:41.204Z,17.17
2022-11-29T22:49:09.466Z,18.38
2022-11-29T22:51:38.661Z,17.45
2022-11-29T22:54:08.566Z,17.63
2022-11-29T22:56:39.547Z,17.65
2022-11-29T22:59:07.683Z,18.40
2022-11-29T23:01:36.978Z,18.27
2022-11-29T23:04:07.251Z,17.48
2022-11-29T23:06:37.334Z,17.92
2022-11-29T23:09:07.595Z,18.50
2022-11-29T23:11:35.484Z,16.75
2022-11-29T23:14:04.864Z,17.35
2022-11-29T23:16:33.493Z,17.58
2022-11-29T23:19:02.267Z,17.77
2022-11-29T23:21:31.994Z,17.55
2022-11-29T23:24:01.463Z,16.83
2022-11-29T23:26:31.773Z,17.00
2022-11-29T23:28:59.979Z,16.20
2022-11-29T23:31:29.349Z,16.70
2022-11-29T23:33:57.412Z,16.10
2022-11-29T23:36:25.446Z,15.88
2022-11-29T23:38:53.586Z,16.58
2022-11-29T23:41:21.578Z,16.42
2022-11-29T23:43:49.570Z,16.05
2022-11-29T23:46:19.523Z,16.45
2022-11-29T23:48:49.274Z,16.27
2022-11-29T23:51:17.863Z,14.90
2022-11-29T23:53:46.686Z,15.90
2022-11-29T23:56:17.427Z,15.75
2022-11-29T23:58:45.943Z,16.05
